createdAt,value
2017-10-14T00:00:40.138Z,4.80
2017-10-14T00:03:07.724Z,6.37
2017-10-14T00:05:35.299Z,8.00
2017-10-14T00:08:03.189Z,7.20
2017-10-14T00:10:30.973Z,7.50
2017-10-14T00:12:58.548Z,7.90
2017-10-14T00:15:26.136Z,6.73
2017-10-14T00:17:56.519Z,8.43
2017-10-14T00:20:24.086Z,8.77
2017-10-14T00:22:51.786Z,5.90
2017-10-14T00:25:19.450Z,6.20
2017-10-14T00:27:47.037Z,5.13
2017-10-14T00:30:14.604Z,7.67
2017-10-14T00:32:42.475Z,5.37
2017-10-14T00:35:10.071Z,6.40
2017-10-14T00:37:37.760Z,4.23
2017-10-14T00:40:05.358Z,5.40
2017-10-14T00:42:32.941Z,5.93
2017-10-14T00:45:00.745Z,6.40
2017-10-14T00:47:28.330Z,5.57
2017-10-14T00:49:55.888Z,4.23
2017-10-14T00:52:24.510Z,6.40
2017-10-14T00:54:52.091Z,12.60
2017-10-14T00:57:22.322Z,5.43
2017-10-14T00:59:49.926Z,5.97
2017-10-14T01:02:17.503Z,3.90
2017-10-14T01:04:45.698Z,7.77
2017-10-14T01:07:13.257Z,5.27
2017-10-14T01:09:40.834Z,6.73
2017-10-14T01:12:08.428Z,5.73
2017-10-14T01:14:35.980Z,3.57
2017-10-14T01:17:03.871Z,4.93
2017-10-14T01:19:32.728Z,3.47
2017-10-14T01:22:00.298Z,2.90
2017-10-14T01:24:27.892Z,2.53
2017-10-14T01:26:55.464Z,4.00
2017-10-14T01:29:24.636Z,4.00
2017-10-14T01:31:52.603Z,2.90
2017-10-14T01:34:20.192Z,4.00
2017-10-14T01:36:48.168Z,4.67
2017-10-14T01:39:16.998Z,3.37
2017-10-14T01:41:44.874Z,4.43
2017-10-14T01:44:12.484Z,5.70
2017-10-14T01:46:41.521Z,4.60
2017-10-14T01:49:09.242Z,5.07
2017-10-14T01:51:36.804Z,6.20
2017-10-14T01:54:05.570Z,7.10
2017-10-14T01:56:33.113Z,3.60
2017-10-14T01:59:00.992Z,3.53
2017-10-14T02:01:28.599Z,3.63
2017-10-14T02:03:56.161Z,3.53
2017-10-14T02:06:23.752Z,9.73
2017-10-14T02:08:51.310Z,6.60
2017-10-14T02:11:19.456Z,4.20
2017-10-14T02:13:47.584Z,4.03
2017-10-14T02:16:16.025Z,6.30
2017-10-14T02:18:43.674Z,3.73
2017-10-14T02:21:11.592Z,5.30
2017-10-14T02:23:39.881Z,9.47
2017-10-14T02:26:08.300Z,5.07
2017-10-14T02:28:36.330Z,3.90
2017-10-14T02:31:04.210Z,3.97
2017-10-14T02:33:32.137Z,8.23
2017-10-14T02:35:59.734Z,5.43
2017-10-14T02:38:28.059Z,5.33
2017-10-14T02:40:57.602Z,6.90
2017-10-14T02:43:26.761Z,5.60
2017-10-14T02:45:54.333Z,6.40
2017-10-14T02:48:21.875Z,6.40
2017-10-14T02:50:50.116Z,5.27
2017-10-14T02:53:17.676Z,4.70
2017-10-14T02:55:45.308Z,5.27
2017-10-14T02:58:12.890Z,5.03
2017-10-14T03:00:40.865Z,6.20
2017-10-14T03:03:08.445Z,5.80
2017-10-14T03:05:36.022Z,8.43
2017-10-14T03:08:05.635Z,4.30
2017-10-14T03:10:34.109Z,7.87
2017-10-14T03:13:01.677Z,8.50
2017-10-14T03:15:29.565Z,9.63
2017-10-14T03:17:57.185Z,7.97
2017-10-14T03:20:24.776Z,5.20
2017-10-14T03:22:52.993Z,4.10
2017-10-14T03:25:21.443Z,6.00
2017-10-14T03:27:49.006Z,4.33
2017-10-14T03:30:16.603Z,13.63
2017-10-14T03:32:44.572Z,5.10
2017-10-14T03:35:12.167Z,6.90
2017-10-14T03:37:39.747Z,4.40
2017-10-14T03:40:07.420Z,4.03
2017-10-14T03:42:34.993Z,4.10
2017-10-14T03:45:02.546Z,7.13
2017-10-14T03:47:30.165Z,6.27
2017-10-14T03:49:57.750Z,4.07
2017-10-14T03:52:25.377Z,4.23
2017-10-14T03:54:52.954Z,8.23
2017-10-14T03:57:20.508Z,5.23
2017-10-14T03:59:48.154Z,4.30
2017-10-14T04:02:16.395Z,4.40
2017-10-14T04:04:44.001Z,4.83
2017-10-14T04:07:11.617Z,11.43
2017-10-14T04:09:39.607Z,15.83
2017-10-14T04:12:07.565Z,18.70
2017-10-14T04:14:35.725Z,12.17
2017-10-14T04:17:03.367Z,10.70
2017-10-14T04:19:30.966Z,12.00
2017-10-14T04:21:58.939Z,10.03
2017-10-14T04:24:26.501Z,7.03
2017-10-14T04:26:54.083Z,5.30
2017-10-14T04:29:21.643Z,4.90
2017-10-14T04:31:49.515Z,5.10
2017-10-14T04:34:17.771Z,7.43
2017-10-14T04:36:45.330Z,6.20
2017-10-14T04:39:12.926Z,5.20
2017-10-14T04:41:40.501Z,9.20
2017-10-14T04:44:08.076Z,8.77
2017-10-14T04:46:35.947Z,7.30
2017-10-14T04:49:03.595Z,7.60
2017-10-14T04:51:31.164Z,6.53
2017-10-14T04:53:59.790Z,6.07
2017-10-14T04:56:27.373Z,7.00
2017-10-14T04:58:54.935Z,5.60
2017-10-14T05:01:22.894Z,5.27
2017-10-14T05:03:50.497Z,3.80
2017-10-14T05:06:18.814Z,5.57
2017-10-14T05:08:46.740Z,3.50
2017-10-14T05:11:14.332Z,3.30
2017-10-14T05:13:41.943Z,4.07
2017-10-14T05:16:10.027Z,4.53
2017-10-14T05:18:38.306Z,4.00
2017-10-14T05:21:05.886Z,4.57
2017-10-14T05:23:33.471Z,3.80
2017-10-14T05:26:01.025Z,3.83
2017-10-14T05:28:29.062Z,5.10
2017-10-14T05:30:57.042Z,5.57
2017-10-14T05:33:24.621Z,5.63
2017-10-14T05:35:52.231Z,3.50
2017-10-14T05:38:20.147Z,3.67
2017-10-14T05:40:47.741Z,7.53
2017-10-14T05:43:15.309Z,4.93
2017-10-14T05:45:43.243Z,5.43
2017-10-14T05:48:10.816Z,4.23
2017-10-14T05:50:39.154Z,4.00
2017-10-14T05:53:07.468Z,4.20
2017-10-14T05:55:35.074Z,8.40
2017-10-14T05:58:04.464Z,5.90
2017-10-14T06:00:33.674Z,4.77
2017-10-14T06:03:01.659Z,5.63
2017-10-14T06:05:29.381Z,4.70
2017-10-14T06:07:56.962Z,4.67
2017-10-14T06:10:24.536Z,4.00
2017-10-14T06:12:52.866Z,6.20
2017-10-14T06:15:20.458Z,4.40
2017-10-14T06:17:50.893Z,4.87
2017-10-14T06:20:18.905Z,4.30
2017-10-14T06:22:46.891Z,4.43
2017-10-14T06:25:14.498Z,5.87
2017-10-14T06:27:43.069Z,6.13
2017-10-14T06:30:12.781Z,7.97
2017-10-14T06:32:40.339Z,9.23
2017-10-14T06:35:08.449Z,5.87
2017-10-14T06:37:36.387Z,4.57
2017-10-14T06:40:03.998Z,5.60
2017-10-14T06:42:31.947Z,6.83
2017-10-14T06:44:59.916Z,5.10
2017-10-14T06:47:27.504Z,6.50
2017-10-14T06:49:55.495Z,4.13
2017-10-14T06:52:23.102Z,5.93
2017-10-14T06:54:50.693Z,4.20
2017-10-14T06:57:18.310Z,5.90
2017-10-14T06:59:45.965Z,4.63
2017-10-14T07:02:14.167Z,4.27
2017-10-14T07:04:41.786Z,3.90
2017-10-14T07:07:10.760Z,10.43
2017-10-14T07:09:39.157Z,4.70
2017-10-14T07:12:06.735Z,5.43
2017-10-14T07:14:35.658Z,5.57
2017-10-14T07:17:03.267Z,10.23
2017-10-14T07:19:30.872Z,6.50
2017-10-14T07:21:58.504Z,6.13
2017-10-14T07:24:26.259Z,7.30
2017-10-14T07:26:53.903Z,8.90
2017-10-14T07:29:22.262Z,6.30
2017-10-14T07:31:52.742Z,8.83
2017-10-14T07:34:20.759Z,7.40
2017-10-14T07:36:48.724Z,8.10
2017-10-14T07:39:16.290Z,6.67
2017-10-14T07:41:43.906Z,6.87
2017-10-14T07:44:11.520Z,7.13
2017-10-14T07:46:39.517Z,6.17
2017-10-14T07:49:07.120Z,8.60
2017-10-14T07:51:34.732Z,8.17
2017-10-14T07:54:02.339Z,6.97
2017-10-14T07:56:30.332Z,10.77
2017-10-14T07:58:58.862Z,8.27
2017-10-14T08:01:26.984Z,12.60
2017-10-14T08:03:54.604Z,8.30
2017-10-14T08:06:22.180Z,10.20
2017-10-14T08:08:49.725Z,13.60
2017-10-14T08:11:17.334Z,13.00
2017-10-14T08:13:44.956Z,10.87
2017-10-14T08:16:12.722Z,12.17
2017-10-14T08:18:40.295Z,12.70
2017-10-14T08:21:08.259Z,12.10
2017-10-14T08:23:35.878Z,14.47
2017-10-14T08:26:03.459Z,13.27
2017-10-14T08:28:31.079Z,12.07
2017-10-14T08:31:01.234Z,10.70
2017-10-14T08:33:28.818Z,10.87
2017-10-14T08:35:56.406Z,11.53
2017-10-14T08:38:26.171Z,14.87
2017-10-14T08:40:53.794Z,10.00
2017-10-14T08:43:21.793Z,9.87
2017-10-14T08:45:54.889Z,8.97
2017-10-14T08:48:23.030Z,14.83
2017-10-14T08:50:50.734Z,10.17
2017-10-14T08:53:18.754Z,9.87
2017-10-14T08:55:46.340Z,13.40
2017-10-14T08:58:13.966Z,13.53
2017-10-14T09:00:41.574Z,9.57
2017-10-14T09:03:09.194Z,9.40
2017-10-14T09:05:36.819Z,11.00
2017-10-14T09:08:04.382Z,11.37
2017-10-14T09:10:31.985Z,9.97
2017-10-14T09:12:59.586Z,12.07
2017-10-14T09:15:27.168Z,10.50
2017-10-14T09:17:54.890Z,15.03
2017-10-14T09:20:22.962Z,11.10
2017-10-14T09:22:50.526Z,15.47
2017-10-14T09:25:18.663Z,8.70
2017-10-14T09:27:46.229Z,9.00
2017-10-14T09:30:13.814Z,8.67
2017-10-14T09:32:41.416Z,8.90
2017-10-14T09:35:09.002Z,12.33
2017-10-14T09:37:36.617Z,10.87
2017-10-14T09:40:04.608Z,11.00
2017-10-14T09:42:32.197Z,9.17
2017-10-14T09:45:00.172Z,12.77
2017-10-14T09:47:28.150Z,9.70
2017-10-14T09:49:57.300Z,14.03
2017-10-14T09:52:25.254Z,11.20
2017-10-14T09:54:52.860Z,9.70
2017-10-14T09:57:20.447Z,11.97
2017-10-14T09:59:48.036Z,14.67
2017-10-14T10:02:15.687Z,12.40
2017-10-14T10:04:43.293Z,14.93
2017-10-14T10:07:10.894Z,12.00
2017-10-14T10:09:38.849Z,12.67
2017-10-14T10:12:06.511Z,12.50
2017-10-14T10:14:34.095Z,16.53
2017-10-14T10:17:01.714Z,11.57
2017-10-14T10:19:29.282Z,11.87
2017-10-14T10:21:57.514Z,11.33
2017-10-14T10:24:25.119Z,9.33
2017-10-14T10:26:52.770Z,10.00
2017-10-14T10:29:20.528Z,12.33
2017-10-14T10:31:48.242Z,12.53
2017-10-14T10:34:15.873Z,12.83
2017-10-14T10:36:43.474Z,10.80
2017-10-14T10:39:11.047Z,10.60
2017-10-14T10:41:39.047Z,14.07
2017-10-14T10:44:06.723Z,10.00
2017-10-14T10:46:34.350Z,14.63
2017-10-14T10:49:01.951Z,16.23
2017-10-14T10:51:29.676Z,12.40
2017-10-14T10:53:57.269Z,10.77
2017-10-14T10:56:24.983Z,11.30
2017-10-14T10:58:52.906Z,10.20
2017-10-14T11:01:20.468Z,9.10
2017-10-14T11:03:48.126Z,10.57
2017-10-14T11:06:16.170Z,9.63
2017-10-14T11:08:44.196Z,11.07
2017-10-14T11:11:11.746Z,8.10
2017-10-14T11:13:39.725Z,9.83
2017-10-14T11:16:07.298Z,7.03
2017-10-14T11:18:34.921Z,13.63
2017-10-14T11:21:02.501Z,8.73
2017-10-14T11:23:30.475Z,7.70
2017-10-14T11:25:58.084Z,9.00
2017-10-14T11:28:25.688Z,10.80
2017-10-14T11:30:53.296Z,8.80
2017-10-14T11:33:20.885Z,8.07
2017-10-14T11:35:48.523Z,6.63
2017-10-14T11:38:16.133Z,8.90
2017-10-14T11:40:43.742Z,7.03
2017-10-14T11:43:11.695Z,7.03
2017-10-14T11:45:39.624Z,4.67
2017-10-14T11:48:08.790Z,8.80
2017-10-14T11:50:36.335Z,5.53
2017-10-14T11:53:05.222Z,8.77
2017-10-14T11:55:32.796Z,8.60
2017-10-14T11:58:01.010Z,7.37
2017-10-14T12:00:28.580Z,9.30
2017-10-14T12:02:58.094Z,10.27
2017-10-14T12:05:26.015Z,11.50
2017-10-14T12:07:55.605Z,11.53
2017-10-14T12:10:24.601Z,9.40
2017-10-14T12:12:52.558Z,23.03
2017-10-14T12:15:20.144Z,19.60
2017-10-14T12:17:47.779Z,12.67
2017-10-14T12:20:16.952Z,10.73
2017-10-14T12:22:44.564Z,9.17
2017-10-14T12:25:12.339Z,9.70
2017-10-14T12:27:40.341Z,8.10
2017-10-14T12:30:07.956Z,9.20
2017-10-14T12:32:35.569Z,11.20
2017-10-14T12:35:03.773Z,7.93
2017-10-14T12:37:31.620Z,10.77
2017-10-14T12:39:59.189Z,11.13
2017-10-14T12:42:28.206Z,8.70
2017-10-14T12:44:55.800Z,6.53
2017-10-14T12:47:23.985Z,10.80
2017-10-14T12:49:51.584Z,12.60
2017-10-14T12:52:19.153Z,9.50
2017-10-14T12:54:46.796Z,6.47
2017-10-14T12:57:15.015Z,8.80
2017-10-14T12:59:42.615Z,10.30
2017-10-14T13:02:10.223Z,6.57
2017-10-14T13:04:37.796Z,8.33
2017-10-14T13:07:05.386Z,7.07
2017-10-14T13:09:33.014Z,7.70
2017-10-14T13:12:00.601Z,9.90
2017-10-14T13:14:28.207Z,7.87
2017-10-14T13:16:55.945Z,8.60
2017-10-14T13:19:23.508Z,9.30
2017-10-14T13:21:51.064Z,7.33
2017-10-14T13:24:18.902Z,8.07
2017-10-14T13:26:46.534Z,5.97
2017-10-14T13:29:14.174Z,11.13
2017-10-14T13:31:41.755Z,8.20
2017-10-14T13:34:09.414Z,7.97
2017-10-14T13:36:37.032Z,10.25
2017-10-14T13:39:04.611Z,8.85
2017-10-14T13:41:33.208Z,7.73
2017-10-14T13:44:00.816Z,8.57
2017-10-14T13:46:28.434Z,6.57
2017-10-14T13:48:56.020Z,6.20
2017-10-14T13:51:23.623Z,8.18
2017-10-14T13:53:51.220Z,11.23
2017-10-14T13:56:18.891Z,7.23
2017-10-14T13:58:46.830Z,7.53
2017-10-14T14:01:14.422Z,9.88
2017-10-14T14:03:42.028Z,9.73
2017-10-14T14:06:09.587Z,5.70
2017-10-14T14:08:37.622Z,7.90
2017-10-14T14:11:05.611Z,8.20
2017-10-14T14:13:33.232Z,8.73
2017-10-14T14:16:03.344Z,6.13
2017-10-14T14:18:30.920Z,8.47
2017-10-14T14:20:58.508Z,9.13
2017-10-14T14:23:26.089Z,15.37
2017-10-14T14:25:53.700Z,9.00
2017-10-14T14:28:21.266Z,6.67
2017-10-14T14:30:48.850Z,6.70
2017-10-14T14:33:17.151Z,6.50
2017-10-14T14:35:44.723Z,5.70
2017-10-14T14:38:12.304Z,12.30
2017-10-14T14:40:41.330Z,8.20
2017-10-14T14:43:08.911Z,8.25
2017-10-14T14:45:36.486Z,11.05
2017-10-14T14:48:04.112Z,7.97
2017-10-14T14:50:31.761Z,6.80
2017-10-14T14:52:59.876Z,7.30
2017-10-14T14:55:27.468Z,6.47
2017-10-14T14:57:55.158Z,6.70
2017-10-14T15:00:22.741Z,8.27
2017-10-14T15:02:52.025Z,6.10
2017-10-14T15:05:19.619Z,6.93
2017-10-14T15:07:47.346Z,9.73
2017-10-14T15:10:14.942Z,6.60
2017-10-14T15:12:42.524Z,5.80
2017-10-14T15:15:11.518Z,10.00
2017-10-14T15:17:39.064Z,6.00
2017-10-14T15:20:06.662Z,6.83
2017-10-14T15:22:34.238Z,8.13
2017-10-14T15:25:01.859Z,5.23
2017-10-14T15:27:29.436Z,6.90
2017-10-14T15:29:57.005Z,7.20
2017-10-14T15:32:24.600Z,8.80
2017-10-14T15:34:52.212Z,7.53
2017-10-14T15:37:20.632Z,6.50
2017-10-14T15:39:48.225Z,9.33
2017-10-14T15:42:15.808Z,7.50
2017-10-14T15:44:43.391Z,10.03
2017-10-14T15:47:10.991Z,8.80
2017-10-14T15:49:38.554Z,9.20
2017-10-14T15:52:06.298Z,7.13
2017-10-14T15:54:33.952Z,8.27
2017-10-14T15:57:01.518Z,7.33
2017-10-14T15:59:29.110Z,7.13
2017-10-14T16:01:56.670Z,6.20
2017-10-14T16:04:24.463Z,9.50
2017-10-14T16:06:52.744Z,7.67
2017-10-14T16:09:20.555Z,5.50
2017-10-14T16:11:48.155Z,5.60
2017-10-14T16:14:15.768Z,4.70
2017-10-14T16:16:43.358Z,4.47
2017-10-14T16:19:10.956Z,7.40
2017-10-14T16:21:38.615Z,6.20
2017-10-14T16:24:06.209Z,14.47
2017-10-14T16:26:33.834Z,8.80
2017-10-14T16:29:01.435Z,12.67
2017-10-14T16:31:29.381Z,13.60
2017-10-14T16:33:56.980Z,17.33
2017-10-14T16:36:25.442Z,16.43
2017-10-14T16:38:53.042Z,10.17
2017-10-14T16:41:20.607Z,9.33
2017-10-14T16:43:48.231Z,8.73
2017-10-14T16:46:15.810Z,10.00
2017-10-14T16:48:43.415Z,8.20
2017-10-14T16:51:10.986Z,8.50
2017-10-14T16:53:40.363Z,9.37
2017-10-14T16:56:07.951Z,10.43
2017-10-14T16:58:37.366Z,8.40
2017-10-14T17:01:05.127Z,10.77
2017-10-14T17:03:33.874Z,8.83
2017-10-14T17:06:02.994Z,13.20
2017-10-14T17:08:30.588Z,9.40
2017-10-14T17:10:58.490Z,11.70
2017-10-14T17:13:26.068Z,7.93
2017-10-14T17:15:54.003Z,6.77
2017-10-14T17:18:22.966Z,12.63
2017-10-14T17:20:50.966Z,8.37
2017-10-14T17:23:18.707Z,8.40
2017-10-14T17:25:46.375Z,16.07
2017-10-14T17:28:14.154Z,12.40
2017-10-14T17:30:41.761Z,19.93
2017-10-14T17:33:09.405Z,15.10
2017-10-14T17:35:37.425Z,13.50
2017-10-14T17:38:05.601Z,10.70
2017-10-14T17:40:33.202Z,14.13
2017-10-14T17:45:34.709Z,11.17
2017-10-14T17:48:02.295Z,8.90
2017-10-14T17:50:29.907Z,11.67
2017-10-14T17:52:57.583Z,14.43
2017-10-14T17:55:25.229Z,12.20
2017-10-14T17:57:52.832Z,13.03
2017-10-14T18:00:20.522Z,13.70
2017-10-14T18:02:48.183Z,14.83
2017-10-14T18:05:15.860Z,9.10
2017-10-14T18:07:43.476Z,11.53
2017-10-14T18:10:11.086Z,13.80
2017-10-14T18:12:38.715Z,14.60
2017-10-14T18:15:06.390Z,11.93
2017-10-14T18:17:34.046Z,11.17
2017-10-14T18:20:01.657Z,16.73
2017-10-14T18:22:29.450Z,13.23
2017-10-14T18:24:57.215Z,11.17
2017-10-14T18:27:25.069Z,12.03
2017-10-14T18:29:52.694Z,12.77
2017-10-14T18:32:20.403Z,11.90
2017-10-14T18:34:48.430Z,11.07
2017-10-14T18:37:16.182Z,11.80
2017-10-14T18:39:43.867Z,12.00
2017-10-14T18:42:12.193Z,12.33
2017-10-14T18:44:40.441Z,17.40
2017-10-14T18:47:09.646Z,18.70
2017-10-14T18:49:38.138Z,12.60
2017-10-14T18:52:06.329Z,12.10
2017-10-14T18:54:34.160Z,12.40
2017-10-14T18:57:03.915Z,13.30
2017-10-14T18:59:32.198Z,13.40
2017-10-14T19:02:02.483Z,10.80
2017-10-14T19:04:30.245Z,7.30
2017-10-14T19:06:59.982Z,11.20
2017-10-14T19:09:28.441Z,7.37
2017-10-14T19:11:57.324Z,12.93
2017-10-14T19:14:25.551Z,8.40
2017-10-14T19:16:53.680Z,8.40
2017-10-14T19:19:23.095Z,5.80
2017-10-14T19:21:51.135Z,9.40
2017-10-14T19:24:20.462Z,12.27
2017-10-14T19:26:48.538Z,6.47
2017-10-14T19:29:19.652Z,10.53
2017-10-14T19:31:49.648Z,9.90
2017-10-14T19:34:17.980Z,10.83
2017-10-14T19:36:45.820Z,13.80
2017-10-14T19:39:15.248Z,17.43
2017-10-14T19:41:43.185Z,17.00
2017-10-14T19:44:12.013Z,9.87
2017-10-14T19:46:40.015Z,12.07
2017-10-14T19:49:08.046Z,9.60
2017-10-14T19:51:36.851Z,13.07
2017-10-14T19:54:04.720Z,9.97
2017-10-14T19:56:32.868Z,12.63
2017-10-14T19:59:00.900Z,12.13
2017-10-14T20:01:28.815Z,13.33
2017-10-14T20:03:56.597Z,13.50
2017-10-14T20:06:24.450Z,14.13
2017-10-14T20:08:52.397Z,12.47
2017-10-14T20:11:21.933Z,14.97
2017-10-14T20:13:49.785Z,11.33
2017-10-14T20:16:17.961Z,14.20
2017-10-14T20:18:46.136Z,10.27
2017-10-14T20:21:14.850Z,10.00
2017-10-14T20:23:44.097Z,8.97
2017-10-14T20:26:12.695Z,8.13
2017-10-14T20:28:40.558Z,9.40
2017-10-14T20:31:09.471Z,5.60
2017-10-14T20:33:37.206Z,8.67
2017-10-14T20:36:04.959Z,8.40
2017-10-14T20:38:32.677Z,10.40
2017-10-14T20:41:01.418Z,6.47
2017-10-14T20:43:29.215Z,11.10
2017-10-14T20:45:56.920Z,9.43
2017-10-14T20:48:24.596Z,9.93
2017-10-14T20:50:52.265Z,9.07
2017-10-14T20:53:19.910Z,13.90
2017-10-14T20:55:47.599Z,11.10
2017-10-14T20:58:15.194Z,10.80
2017-10-14T21:00:42.800Z,8.60
2017-10-14T21:03:10.384Z,8.87
2017-10-14T21:05:38.714Z,9.83
2017-10-14T21:08:06.323Z,13.10
2017-10-14T21:10:34.531Z,10.00
2017-10-14T21:13:02.133Z,10.87
2017-10-14T21:15:29.704Z,12.07
2017-10-14T21:17:57.322Z,12.40
2017-10-14T21:20:24.884Z,8.87
2017-10-14T21:22:52.460Z,8.93
2017-10-14T21:25:20.054Z,13.13
2017-10-14T21:27:48.007Z,11.37
2017-10-14T21:30:15.682Z,9.03
2017-10-14T21:32:43.276Z,10.03
2017-10-14T21:35:10.930Z,10.07
2017-10-14T21:37:38.519Z,12.37
2017-10-14T21:40:06.179Z,10.40
2017-10-14T21:42:34.101Z,9.97
2017-10-14T21:45:01.692Z,8.97
2017-10-14T21:47:29.312Z,11.10
2017-10-14T21:49:57.042Z,9.03
2017-10-14T21:52:24.624Z,9.80
2017-10-14T21:54:52.217Z,10.57
2017-10-14T21:57:19.804Z,9.53
2017-10-14T21:59:47.428Z,13.73
2017-10-14T22:02:15.052Z,14.23
2017-10-14T22:04:42.821Z,10.80
2017-10-14T22:07:10.453Z,12.10
2017-10-14T22:09:38.087Z,15.80
2017-10-14T22:12:05.668Z,16.83
2017-10-14T22:14:33.232Z,10.33
2017-10-14T22:17:00.860Z,14.00
2017-10-14T22:19:28.821Z,9.97
2017-10-14T22:21:56.428Z,11.70
2017-10-14T22:24:24.028Z,8.27
2017-10-14T22:26:51.636Z,11.73
2017-10-14T22:29:19.225Z,13.90
2017-10-14T22:31:46.966Z,8.17
2017-10-14T22:34:14.616Z,11.30
2017-10-14T22:36:42.199Z,9.43
2017-10-14T22:39:09.793Z,8.50
2017-10-14T22:41:37.393Z,10.37
2017-10-14T22:44:05.016Z,11.83
2017-10-14T22:46:32.606Z,11.50
2017-10-14T22:49:00.609Z,14.40
2017-10-14T22:51:28.683Z,9.30
2017-10-14T22:53:56.246Z,7.93
2017-10-14T22:56:23.989Z,8.00
2017-10-14T22:58:51.560Z,9.93
2017-10-14T23:01:19.238Z,10.93
2017-10-14T23:03:46.834Z,16.33
2017-10-14T23:06:14.458Z,9.17
2017-10-14T23:08:42.064Z,9.23
2017-10-14T23:11:10.034Z,10.30
2017-10-14T23:13:37.607Z,10.30
2017-10-14T23:16:05.404Z,9.77
2017-10-14T23:18:32.991Z,11.60
2017-10-14T23:21:00.553Z,12.70
2017-10-14T23:23:28.790Z,11.30
2017-10-14T23:25:57.708Z,9.80
2017-10-14T23:28:25.662Z,8.70
2017-10-14T23:30:53.228Z,10.63
2017-10-14T23:33:21.174Z,11.43
2017-10-14T23:35:48.728Z,9.90
2017-10-14T23:38:16.395Z,15.03
2017-10-14T23:40:43.967Z,8.43
2017-10-14T23:43:11.553Z,12.10
2017-10-14T23:45:39.174Z,10.57
2017-10-14T23:48:06.770Z,10.70
2017-10-14T23:50:34.372Z,14.60
2017-10-14T23:53:01.941Z,12.17
2017-10-14T23:55:29.956Z,12.07
2017-10-14T23:57:57.533Z,15.13
